createdAt,value
2022-08-26T00:00:13.051Z,23.80
2022-08-26T00:02:16.481Z,37.33
2022-08-26T00:04:25.352Z,39.15
2022-08-26T00:06:27.466Z,56.33
2022-08-26T00:08:29.351Z,57.45
2022-08-26T00:10:31.248Z,38.83
2022-08-26T00:12:37.479Z,62.63
2022-08-26T00:14:39.727Z,43.10
2022-08-26T00:16:47.597Z,61.28
2022-08-26T00:18:50.443Z,44.97
2022-08-26T00:20:52.279Z,67.57
2022-08-26T00:22:54.431Z,46.55
2022-08-26T00:24:56.224Z,42.47
2022-08-26T00:26:58.219Z,43.75
2022-08-26T00:28:59.988Z,45.17
2022-08-26T00:31:02.171Z,27.55
2022-08-26T00:33:06.247Z,49.05
2022-08-26T00:35:10.523Z,20.48
2022-08-26T00:37:14.534Z,34.67
2022-08-26T00:39:18.141Z,39.58
2022-08-26T00:41:20.460Z,33.83
2022-08-26T00:43:22.763Z,39.63
2022-08-26T00:45:25.619Z,61.65
2022-08-26T00:47:31.406Z,43.88
2022-08-26T00:49:39.775Z,34.78
2022-08-26T00:51:48.223Z,60.80
2022-08-26T00:53:55.995Z,64.93
2022-08-26T00:56:04.693Z,56.67
2022-08-26T00:58:08.801Z,34.85
2022-08-26T01:00:15.084Z,42.58
2022-08-26T01:02:20.328Z,45.13
2022-08-26T01:04:23.759Z,74.00
2022-08-26T01:06:31.587Z,22.60
2022-08-26T01:08:33.648Z,55.90
2022-08-26T01:10:35.442Z,52.05
2022-08-26T01:12:52.486Z,43.65
2022-08-26T01:14:54.414Z,91.00
2022-08-26T01:16:56.136Z,53.42
2022-08-26T01:19:03.874Z,39.65
2022-08-26T01:21:08.319Z,74.13
2022-08-26T01:23:11.985Z,47.92
2022-08-26T01:25:14.638Z,53.00
2022-08-26T01:27:19.046Z,64.80
2022-08-26T01:29:21.025Z,44.85
2022-08-26T01:31:25.947Z,55.05
2022-08-26T01:33:42.088Z,62.97
2022-08-26T01:35:47.442Z,50.97
2022-08-26T01:37:52.301Z,58.65
2022-08-26T01:39:56.402Z,58.92
2022-08-26T01:42:02.991Z,69.30
2022-08-26T01:44:07.848Z,44.90
2022-08-26T01:46:12.747Z,59.08
2022-08-26T01:48:17.987Z,44.13
2022-08-26T01:50:30.713Z,53.75
2022-08-26T01:52:33.547Z,34.80
2022-08-26T01:54:35.599Z,42.42
2022-08-26T01:56:37.800Z,68.03
2022-08-26T01:58:49.325Z,61.55
2022-08-26T02:00:53.441Z,48.78
2022-08-26T02:03:16.545Z,49.17
2022-08-26T02:05:22.216Z,56.85
2022-08-26T02:07:26.689Z,70.20
2022-08-26T02:09:28.826Z,73.10
2022-08-26T02:11:33.996Z,61.78
2022-08-26T02:16:56.015Z,66.43
2022-08-26T02:18:58.761Z,45.15
2022-08-26T02:21:00.581Z,73.72
2022-08-26T02:23:03.038Z,60.33
2022-08-26T02:25:25.598Z,47.95
2022-08-26T02:27:32.913Z,47.33
2022-08-26T02:29:38.424Z,55.05
2022-08-26T02:31:40.245Z,35.10
2022-08-26T02:33:43.138Z,57.58
2022-08-26T02:35:46.130Z,52.22
2022-08-26T02:37:49.497Z,67.97
2022-08-26T02:39:51.315Z,75.97
2022-08-26T02:41:53.827Z,39.63
2022-08-26T02:43:55.968Z,42.50
2022-08-26T02:45:57.679Z,25.67
2022-08-26T02:48:00.849Z,49.88
2022-08-26T02:50:02.494Z,47.88
2022-08-26T02:52:04.213Z,60.13
2022-08-26T02:54:06.724Z,30.42
2022-08-26T02:56:08.868Z,76.80
2022-08-26T02:58:11.488Z,81.72
2022-08-26T03:00:15.472Z,72.82
2022-08-26T03:02:17.393Z,51.13
2022-08-26T03:04:19.447Z,63.65
2022-08-26T03:06:22.037Z,49.97
2022-08-26T03:08:24.038Z,59.47
2022-08-26T03:10:28.094Z,52.85
2022-08-26T03:12:29.748Z,43.47
2022-08-26T03:14:31.499Z,51.78
2022-08-26T03:16:34.930Z,61.33
2022-08-26T03:18:36.821Z,43.20
2022-08-26T03:20:38.839Z,70.93
2022-08-26T03:22:40.533Z,54.80
2022-08-26T03:24:46.014Z,67.13
2022-08-26T03:26:52.349Z,72.25
2022-08-26T03:29:14.277Z,65.85
2022-08-26T03:31:16.887Z,83.32
2022-08-26T03:33:19.121Z,66.43
2022-08-26T03:35:22.452Z,48.08
2022-08-26T03:37:24.208Z,51.40
2022-08-26T03:39:25.846Z,73.25
2022-08-26T03:41:27.498Z,75.05
2022-08-26T03:43:29.242Z,61.08
2022-08-26T03:45:31.285Z,65.38
2022-08-26T03:47:33.850Z,43.42
2022-08-26T03:49:35.999Z,53.63
2022-08-26T03:51:38.798Z,79.68
2022-08-26T03:53:41.002Z,62.67
2022-08-26T03:55:43.214Z,63.80
2022-08-26T03:57:44.995Z,54.42
2022-08-26T03:59:46.676Z,49.70
2022-08-26T04:01:49.853Z,66.50
2022-08-26T04:03:57.760Z,47.50
2022-08-26T04:06:01.811Z,59.30
2022-08-26T04:08:05.990Z,44.95
2022-08-26T04:10:08.033Z,62.17
2022-08-26T04:12:11.983Z,75.63
2022-08-26T04:14:17.580Z,40.03
2022-08-26T04:16:21.802Z,67.28
2022-08-26T04:18:25.372Z,64.53
2022-08-26T04:20:34.302Z,24.73
2022-08-26T04:22:35.936Z,98.07
2022-08-26T04:24:39.566Z,66.45
2022-08-26T04:26:43.763Z,70.10
2022-08-26T04:28:46.804Z,86.10
2022-08-26T04:30:52.424Z,77.13
2022-08-26T04:32:54.115Z,63.35
2022-08-26T04:34:56.432Z,60.10
2022-08-26T04:36:59.639Z,44.70
2022-08-26T04:39:02.683Z,27.77
2022-08-26T04:41:07.291Z,26.60
2022-08-26T04:43:17.539Z,71.88
2022-08-26T04:45:22.816Z,54.10
2022-08-26T04:47:27.133Z,76.53
2022-08-26T04:49:35.546Z,62.88
2022-08-26T04:51:37.867Z,61.70
2022-08-26T04:53:40.184Z,96.63
2022-08-26T04:55:42.817Z,63.53
2022-08-26T04:57:47.329Z,70.30
2022-08-26T04:59:49.225Z,82.45
2022-08-26T05:01:53.402Z,54.88
2022-08-26T05:03:55.296Z,54.53
2022-08-26T05:05:57.397Z,73.72
2022-08-26T05:07:59.187Z,44.67
2022-08-26T05:10:02.077Z,78.90
2022-08-26T05:12:05.488Z,42.13
2022-08-26T05:14:07.183Z,76.90
2022-08-26T05:16:12.043Z,73.88
2022-08-26T05:18:16.489Z,83.68
2022-08-26T05:20:20.625Z,66.95
2022-08-26T05:22:26.982Z,45.03
2022-08-26T05:24:29.050Z,50.83
2022-08-26T05:26:32.451Z,68.15
2022-08-26T05:28:34.284Z,64.25
2022-08-26T05:30:38.249Z,62.97
2022-08-26T05:32:40.358Z,55.22
2022-08-26T05:34:43.016Z,58.92
2022-08-26T05:36:44.884Z,59.58
2022-08-26T05:38:47.012Z,55.47
2022-08-26T05:40:52.838Z,44.22
2022-08-26T05:42:55.066Z,47.63
2022-08-26T05:44:56.839Z,58.80
2022-08-26T05:46:58.703Z,94.60
2022-08-26T05:49:00.414Z,85.72
2022-08-26T05:51:05.922Z,96.28
2022-08-26T05:53:09.515Z,65.32
2022-08-26T05:55:11.462Z,80.88
2022-08-26T05:57:15.777Z,62.72
2022-08-26T05:59:24.086Z,75.97
2022-08-26T06:01:27.551Z,91.47
2022-08-26T06:03:29.934Z,67.13
2022-08-26T06:05:35.302Z,65.95
2022-08-26T06:07:58.695Z,54.22
2022-08-26T06:10:28.128Z,85.45
2022-08-26T06:12:22.496Z,58.28
2022-08-26T06:14:25.990Z,49.58
2022-08-26T06:16:28.501Z,50.42
2022-08-26T06:18:35.508Z,80.95
2022-08-26T06:20:37.571Z,46.55
2022-08-26T06:22:57.716Z,61.75
2022-08-26T06:25:19.344Z,52.30
2022-08-26T06:27:20.995Z,52.17
2022-08-26T06:29:25.456Z,67.82
2022-08-26T06:31:28.287Z,86.03
2022-08-26T06:33:32.108Z,36.50
2022-08-26T06:35:41.621Z,43.72
2022-08-26T06:37:43.351Z,36.58
2022-08-26T06:39:45.388Z,83.63
2022-08-26T06:41:47.627Z,52.53
2022-08-26T06:43:50.718Z,51.88
2022-08-26T06:45:59.918Z,33.03
2022-08-26T06:48:02.355Z,49.38
2022-08-26T06:50:04.205Z,37.65
2022-08-26T06:52:06.156Z,63.20
2022-08-26T06:54:09.243Z,36.90
2022-08-26T06:56:12.741Z,66.72
2022-08-26T06:58:14.916Z,45.17
2022-08-26T07:00:18.307Z,38.78
2022-08-26T07:02:22.034Z,40.58
2022-08-26T07:04:25.023Z,28.27
2022-08-26T07:06:30.393Z,51.63
2022-08-26T07:08:32.131Z,32.78
2022-08-26T07:10:39.518Z,25.60
2022-08-26T07:12:41.752Z,31.95
2022-08-26T07:14:49.049Z,33.90
2022-08-26T07:16:51.275Z,22.02
2022-08-26T07:18:54.044Z,38.90
2022-08-26T07:20:55.800Z,33.38
2022-08-26T07:22:59.013Z,56.13
2022-08-26T07:25:00.788Z,29.88
2022-08-26T07:27:05.603Z,53.78
2022-08-26T07:29:07.661Z,59.67
2022-08-26T07:31:11.411Z,34.25
2022-08-26T07:33:13.807Z,28.70
2022-08-26T07:35:15.496Z,29.40
2022-08-26T07:37:18.036Z,57.33
2022-08-26T07:39:20.877Z,30.70
2022-08-26T07:41:24.392Z,42.55
2022-08-26T07:43:26.138Z,44.47
2022-08-26T07:45:31.192Z,32.50
2022-08-26T07:47:33.023Z,39.83
2022-08-26T07:49:35.408Z,37.70
2022-08-26T07:51:37.854Z,23.33
2022-08-26T07:53:39.966Z,24.10
2022-08-26T07:55:41.703Z,38.53
2022-08-26T07:57:43.982Z,28.45
2022-08-26T07:59:45.699Z,23.80
2022-08-26T08:01:48.015Z,47.30
2022-08-26T08:03:51.747Z,41.10
2022-08-26T08:05:53.666Z,41.70
2022-08-26T08:08:21.873Z,24.98
2022-08-26T08:10:21.025Z,18.08
2022-08-26T08:12:22.941Z,51.47
2022-08-26T08:14:24.597Z,22.98
2022-08-26T08:16:28.428Z,29.90
2022-08-26T08:18:34.323Z,14.80
2022-08-26T08:20:36.605Z,47.10
2022-08-26T08:22:38.494Z,50.40
2022-08-26T08:24:40.334Z,32.42
2022-08-26T08:26:42.512Z,38.15
2022-08-26T08:28:44.369Z,43.67
2022-08-26T08:30:49.446Z,39.78
2022-08-26T08:32:52.161Z,22.05
2022-08-26T08:34:53.882Z,20.00
2022-08-26T08:36:57.474Z,48.47
2022-08-26T08:38:59.307Z,31.13
2022-08-26T08:41:01.098Z,43.50
2022-08-26T08:43:10.846Z,25.38
2022-08-26T08:45:30.470Z,40.42
2022-08-26T08:47:37.308Z,45.03
2022-08-26T08:49:39.498Z,47.53
2022-08-26T08:51:48.256Z,29.50
2022-08-26T08:53:54.655Z,27.63
2022-08-26T08:56:12.979Z,44.35
2022-08-26T08:58:20.988Z,45.88
2022-08-26T09:00:30.411Z,26.10
2022-08-26T09:02:45.264Z,14.32
2022-08-26T09:05:08.004Z,44.92
2022-08-26T09:07:23.686Z,30.05
2022-08-26T09:09:38.412Z,53.83
2022-08-26T09:11:40.356Z,28.88
2022-08-26T09:13:46.623Z,25.40
2022-08-26T09:16:07.400Z,28.45
2022-08-26T09:18:29.372Z,31.83
2022-08-26T09:20:49.137Z,36.00
2022-08-26T09:22:51.910Z,47.42
2022-08-26T09:24:53.670Z,25.08
2022-08-26T09:26:57.880Z,22.75
2022-08-26T09:29:01.988Z,17.27
2022-08-26T09:31:11.699Z,33.13
2022-08-26T09:33:17.468Z,24.70
2022-08-26T09:35:35.248Z,48.20
2022-08-26T09:37:43.248Z,47.17
2022-08-26T09:39:45.052Z,23.00
2022-08-26T09:42:02.588Z,54.15
2022-08-26T09:44:04.316Z,37.92
2022-08-26T09:46:19.732Z,29.58
2022-08-26T09:48:41.139Z,29.20
2022-08-26T09:50:54.817Z,42.92
2022-08-26T09:53:14.582Z,48.50
2022-08-26T09:55:22.459Z,23.92
2022-08-26T09:57:29.912Z,18.77
2022-08-26T09:59:31.811Z,41.90
2022-08-26T10:01:42.035Z,35.28
2022-08-26T10:03:44.641Z,42.22
2022-08-26T10:06:04.422Z,31.27
2022-08-26T10:08:28.159Z,40.03
2022-08-26T10:10:36.768Z,46.55
2022-08-26T10:12:43.339Z,31.92
2022-08-26T10:14:55.393Z,24.75
2022-08-26T10:17:17.889Z,39.05
2022-08-26T10:19:22.728Z,30.85
2022-08-26T10:21:29.256Z,38.30
2022-08-26T10:23:34.923Z,34.47
2022-08-26T10:25:47.651Z,40.47
2022-08-26T10:28:12.163Z,21.40
2022-08-26T10:30:17.382Z,34.67
2022-08-26T10:32:35.240Z,26.58
2022-08-26T10:34:42.809Z,9.57
2022-08-26T10:37:13.603Z,21.27
2022-08-26T10:39:37.064Z,30.88
2022-08-26T10:41:41.999Z,36.25
2022-08-26T10:43:49.413Z,36.63
2022-08-26T10:45:54.602Z,42.78
2022-08-26T10:48:05.691Z,49.88
2022-08-26T10:50:07.821Z,50.45
2022-08-26T10:52:16.444Z,37.28
2022-08-26T10:54:47.787Z,54.60
2022-08-26T10:56:58.489Z,42.33
2022-08-26T10:59:03.962Z,34.25
2022-08-26T11:01:42.275Z,27.77
2022-08-26T11:04:00.475Z,35.60
2022-08-26T11:06:25.767Z,35.50
2022-08-26T11:08:29.648Z,48.53
2022-08-26T11:10:43.188Z,58.55
2022-08-26T11:12:49.470Z,23.27
2022-08-26T11:14:58.835Z,21.52
2022-08-26T11:17:02.207Z,30.35
2022-08-26T11:19:04.835Z,39.35
2022-08-26T11:21:47.637Z,50.58
2022-08-26T11:23:50.541Z,50.10
2022-08-26T11:26:01.956Z,39.15
2022-08-26T11:28:04.920Z,43.53
2022-08-26T11:30:34.174Z,34.00
2022-08-26T11:32:39.490Z,22.40
2022-08-26T11:34:58.366Z,25.25
2022-08-26T11:37:01.854Z,24.48
2022-08-26T11:39:30.799Z,32.67
2022-08-26T11:41:34.018Z,34.80
2022-08-26T11:43:38.320Z,18.45
2022-08-26T11:45:46.657Z,15.60
2022-08-26T11:47:49.339Z,23.25
2022-08-26T11:50:06.538Z,29.67
2022-08-26T11:52:20.731Z,27.10
2022-08-26T11:54:35.700Z,24.55
2022-08-26T11:56:38.224Z,42.63
2022-08-26T11:58:44.538Z,41.97
2022-08-26T12:00:46.197Z,32.38
2022-08-26T12:02:48.570Z,29.58
2022-08-26T12:04:51.600Z,50.72
2022-08-26T12:06:53.879Z,9.73
2022-08-26T12:08:59.929Z,38.83
2022-08-26T12:11:06.372Z,19.08
2022-08-26T12:13:09.222Z,34.63
2022-08-26T12:15:19.864Z,15.50
2022-08-26T12:17:27.893Z,21.55
2022-08-26T12:19:32.838Z,17.55
2022-08-26T12:21:35.656Z,19.30
2022-08-26T12:23:45.267Z,28.52
2022-08-26T12:25:50.432Z,43.40
2022-08-26T12:27:54.031Z,52.88
2022-08-26T12:30:02.641Z,28.95
2022-08-26T12:32:17.646Z,25.73
2022-08-26T12:34:19.761Z,21.10
2022-08-26T12:36:28.635Z,30.40
2022-08-26T12:38:31.326Z,20.23
2022-08-26T12:40:44.263Z,20.67
2022-08-26T12:42:46.838Z,42.33
2022-08-26T12:44:53.388Z,27.13
2022-08-26T12:47:05.580Z,41.72
2022-08-26T12:49:07.805Z,29.83
2022-08-26T12:51:20.414Z,32.97
2022-08-26T12:53:27.243Z,32.85
2022-08-26T12:55:50.747Z,30.90
2022-08-26T12:58:15.321Z,22.95
2022-08-26T13:00:34.613Z,31.17
2022-08-26T13:02:38.368Z,37.45
2022-08-26T13:04:41.211Z,33.85
2022-08-26T13:06:43.001Z,12.90
2022-08-26T13:09:06.565Z,34.03
2022-08-26T13:11:11.254Z,42.35
2022-08-26T13:13:13.570Z,40.08
2022-08-26T13:15:15.590Z,37.35
2022-08-26T13:17:17.329Z,21.65
2022-08-26T13:19:25.537Z,24.35
2022-08-26T13:21:37.571Z,17.13
2022-08-26T13:23:42.531Z,48.00
2022-08-26T13:25:45.122Z,39.72
2022-08-26T13:27:46.916Z,35.17
2022-08-26T13:29:48.599Z,39.67
2022-08-26T13:31:50.653Z,38.00
2022-08-26T13:33:52.372Z,118.35
2022-08-26T13:35:54.864Z,93.07
2022-08-26T13:37:57.475Z,84.25
2022-08-26T13:39:59.191Z,73.97
2022-08-26T13:42:00.920Z,131.07
2022-08-26T13:44:02.888Z,91.30
2022-08-26T13:46:04.747Z,81.88
2022-08-26T13:48:07.535Z,92.43
2022-08-26T13:50:09.395Z,113.57
2022-08-26T13:52:11.589Z,35.13
2022-08-26T13:54:13.294Z,82.35
2022-08-26T13:56:15.187Z,58.58
2022-08-26T13:58:17.325Z,70.43
2022-08-26T14:00:19.666Z,56.00
2022-08-26T14:02:22.254Z,44.83
2022-08-26T14:04:27.325Z,88.47
2022-08-26T14:06:29.394Z,41.70
2022-08-26T14:08:32.316Z,65.80
2022-08-26T14:10:34.183Z,70.97
2022-08-26T14:12:35.999Z,73.25
2022-08-26T14:14:37.738Z,59.40
2022-08-26T14:16:58.861Z,53.50
2022-08-26T14:19:02.358Z,61.92
2022-08-26T14:21:05.945Z,47.92
2022-08-26T14:23:20.809Z,61.22
2022-08-26T14:25:23.208Z,49.33
2022-08-26T14:27:25.516Z,25.90
2022-08-26T14:29:27.284Z,56.67
2022-08-26T14:31:29.601Z,64.68
2022-08-26T14:33:33.149Z,27.77
2022-08-26T14:35:34.855Z,55.25
2022-08-26T14:37:36.518Z,57.33
2022-08-26T14:39:40.768Z,85.15
2022-08-26T14:41:54.387Z,71.57
2022-08-26T14:44:05.832Z,57.75
2022-08-26T14:46:07.683Z,63.33
2022-08-26T14:48:09.799Z,75.22
2022-08-26T14:50:14.361Z,78.55
2022-08-26T14:52:16.446Z,64.60
2022-08-26T14:54:18.957Z,89.38
2022-08-26T14:56:20.856Z,37.35
2022-08-26T14:58:22.512Z,96.35
2022-08-26T15:00:24.271Z,65.65
2022-08-26T15:02:32.924Z,81.05
2022-08-26T15:04:35.390Z,83.13
2022-08-26T15:06:37.966Z,103.15
2022-08-26T15:08:40.127Z,73.72
2022-08-26T15:10:41.837Z,91.45
2022-08-26T15:12:45.345Z,90.95
2022-08-26T15:14:47.003Z,96.95
2022-08-26T15:16:54.572Z,83.03
2022-08-26T15:18:56.888Z,100.15
2022-08-26T15:20:58.648Z,95.82
2022-08-26T15:23:03.787Z,100.10
2022-08-26T15:25:08.421Z,96.75
2022-08-26T15:27:10.132Z,125.82
2022-08-26T15:29:11.820Z,81.15
2022-08-26T15:31:13.665Z,114.10
2022-08-26T15:33:15.638Z,109.45
2022-08-26T15:35:18.224Z,129.07
2022-08-26T15:37:19.965Z,113.78
2022-08-26T15:39:21.696Z,81.28
2022-08-26T15:41:24.309Z,127.75
2022-08-26T15:43:28.987Z,112.30
2022-08-26T15:45:32.933Z,119.07
2022-08-26T15:47:35.534Z,134.90
2022-08-26T15:49:56.452Z,159.57
2022-08-26T15:51:58.115Z,123.10
2022-08-26T15:54:00.066Z,147.00
2022-08-26T15:56:02.259Z,133.38
2022-08-26T15:58:04.490Z,168.65
2022-08-26T16:00:07.132Z,175.52
2022-08-26T16:02:11.290Z,174.20
2022-08-26T16:04:14.026Z,175.32
2022-08-26T16:06:17.057Z,157.13
2022-08-26T16:08:19.095Z,161.80
2022-08-26T16:10:20.996Z,194.30
2022-08-26T16:12:22.711Z,184.15
2022-08-26T16:14:24.879Z,180.60
2022-08-26T16:16:27.052Z,199.27
2022-08-26T16:18:29.011Z,260.27
2022-08-26T16:20:33.847Z,222.88
2022-08-26T16:22:35.559Z,271.70
2022-08-26T16:24:37.433Z,264.30
2022-08-26T16:26:42.669Z,281.67
2022-08-26T16:28:44.551Z,343.23
2022-08-26T16:30:46.875Z,313.25
2022-08-26T16:32:49.177Z,381.25
2022-08-26T16:34:56.698Z,426.65
2022-08-26T16:36:59.302Z,391.15
2022-08-26T16:39:01.397Z,286.65
2022-08-26T16:41:03.171Z,387.95
2022-08-26T16:43:05.079Z,407.33
2022-08-26T16:45:07.408Z,418.27
2022-08-26T16:47:09.120Z,522.88
2022-08-26T16:49:10.881Z,373.08
2022-08-26T16:51:17.935Z,449.48
2022-08-26T16:53:19.660Z,556.90
2022-08-26T16:55:21.989Z,623.72
2022-08-26T16:57:23.779Z,780.50
2022-08-26T16:59:25.447Z,842.70
2022-08-26T17:01:27.289Z,693.53
2022-08-26T17:03:29.067Z,992.65
2022-08-26T17:05:30.810Z,997.65
2022-08-26T17:07:32.582Z,997.13
2022-08-26T17:09:34.292Z,999.90
2022-08-26T17:11:36.148Z,999.90
2022-08-26T17:13:39.289Z,999.90
2022-08-26T17:15:41.107Z,999.90
2022-08-26T17:17:43.047Z,999.90
2022-08-26T17:19:47.084Z,999.90
2022-08-26T17:21:49.392Z,999.90
2022-08-26T17:23:51.776Z,999.90
2022-08-26T17:25:53.621Z,999.90
2022-08-26T17:29:58.464Z,999.90
2022-08-26T17:32:00.477Z,999.90
2022-08-26T17:34:05.737Z,999.90
2022-08-26T17:36:08.623Z,999.90
2022-08-26T17:38:10.598Z,999.90
2022-08-26T17:40:17.293Z,999.90
2022-08-26T17:42:19.392Z,999.90
2022-08-26T17:44:21.114Z,999.90
2022-08-26T17:46:23.356Z,999.90
2022-08-26T17:48:25.364Z,999.90
2022-08-26T17:50:27.312Z,999.90
2022-08-26T17:52:30.671Z,999.90
2022-08-26T17:54:32.383Z,999.90
2022-08-26T17:56:34.197Z,999.90
2022-08-26T17:58:36.786Z,999.90
2022-08-26T18:00:39.093Z,999.90
2022-08-26T18:02:41.266Z,999.90
2022-08-26T18:04:43.043Z,999.90
2022-08-26T18:06:47.907Z,999.90
2022-08-26T18:08:50.116Z,999.90
2022-08-26T18:10:51.861Z,999.90
2022-08-26T18:12:53.662Z,999.90
2022-08-26T18:14:55.291Z,999.90
2022-08-26T18:16:58.708Z,999.90
2022-08-26T18:19:00.733Z,999.90
2022-08-26T18:21:03.478Z,999.90
2022-08-26T18:23:05.810Z,999.90
2022-08-26T18:25:08.479Z,999.90
2022-08-26T18:27:10.313Z,999.90
2022-08-26T18:29:11.995Z,999.90
2022-08-26T18:31:14.048Z,999.90
2022-08-26T18:33:15.911Z,999.90
2022-08-26T18:35:18.281Z,999.90
2022-08-26T18:37:20.119Z,999.90
2022-08-26T18:39:22.138Z,999.90
2022-08-26T18:41:27.790Z,999.90
2022-08-26T18:43:32.673Z,999.90
2022-08-26T18:45:34.652Z,999.90
2022-08-26T18:47:36.515Z,999.90
2022-08-26T18:49:39.082Z,999.90
2022-08-26T18:51:41.135Z,999.90
2022-08-26T18:53:42.807Z,999.90
2022-08-26T18:55:44.477Z,999.90
2022-08-26T18:57:46.258Z,999.90
2022-08-26T18:59:47.942Z,999.90
2022-08-26T19:01:50.702Z,999.90
2022-08-26T19:03:52.675Z,999.90
2022-08-26T19:05:55.242Z,999.90
2022-08-26T19:07:56.952Z,999.90
2022-08-26T19:09:58.697Z,999.90
2022-08-26T19:12:01.835Z,999.90
2022-08-26T19:14:06.630Z,999.90
2022-08-26T19:16:15.138Z,999.90
2022-08-26T19:18:17.894Z,999.90
2022-08-26T19:20:19.622Z,999.90
2022-08-26T19:22:22.215Z,999.90
2022-08-26T19:24:25.921Z,999.90
2022-08-26T19:26:29.887Z,999.90
2022-08-26T19:28:32.562Z,999.90
2022-08-26T19:30:38.443Z,999.90
2022-08-26T19:32:40.181Z,999.90
2022-08-26T19:34:42.489Z,999.90
2022-08-26T19:36:46.796Z,999.90
2022-08-26T19:38:49.159Z,999.90
2022-08-26T19:40:50.897Z,999.90
2022-08-26T19:42:52.789Z,999.90
2022-08-26T19:45:24.309Z,999.90
2022-08-26T19:47:27.255Z,999.90
2022-08-26T19:49:28.991Z,999.90
2022-08-26T19:51:32.229Z,999.90
2022-08-26T19:53:33.907Z,999.90
2022-08-26T19:55:35.638Z,999.90
2022-08-26T19:57:39.377Z,999.90
2022-08-26T19:59:41.484Z,999.90
2022-08-26T20:01:43.250Z,999.90
2022-08-26T20:03:45.753Z,999.90
2022-08-26T20:05:47.505Z,999.90
2022-08-26T20:07:50.042Z,999.90
2022-08-26T20:09:51.737Z,999.90
2022-08-26T20:11:54.100Z,999.90
2022-08-26T20:13:59.959Z,999.90
2022-08-26T20:16:01.990Z,999.90
2022-08-26T20:18:03.846Z,999.90
2022-08-26T20:20:33.286Z,999.90
2022-08-26T20:22:38.994Z,999.90
2022-08-26T20:24:41.049Z,999.90
2022-08-26T20:26:44.109Z,999.90
2022-08-26T20:28:45.793Z,999.90
2022-08-26T20:30:50.914Z,999.90
2022-08-26T20:32:53.019Z,999.90
2022-08-26T20:34:55.060Z,999.90
2022-08-26T20:36:59.526Z,999.90
2022-08-26T20:39:01.277Z,999.90
2022-08-26T20:41:03.527Z,999.90
2022-08-26T20:43:06.297Z,999.90
2022-08-26T20:45:08.746Z,999.90
2022-08-26T20:47:10.467Z,999.90
2022-08-26T20:49:13.413Z,999.90
2022-08-26T20:51:16.545Z,999.90
2022-08-26T20:53:18.237Z,999.90
2022-08-26T20:55:21.028Z,999.90
2022-08-26T20:57:22.789Z,999.90
2022-08-26T20:59:25.337Z,999.90
2022-08-26T21:01:33.634Z,999.90
2022-08-26T21:03:36.574Z,999.90
2022-08-26T21:05:38.350Z,999.90
2022-08-26T21:07:40.174Z,999.90
2022-08-26T21:09:42.246Z,999.90
2022-08-26T21:11:44.570Z,999.90
2022-08-26T21:16:08.748Z,999.90
2022-08-26T21:18:10.712Z,999.90
2022-08-26T21:20:12.488Z,999.90
2022-08-26T21:22:14.283Z,999.90
2022-08-26T21:24:16.235Z,999.90
2022-08-26T21:26:18.021Z,999.90
2022-08-26T21:28:19.783Z,999.90
2022-08-26T21:30:21.504Z,999.90
2022-08-26T21:32:23.534Z,999.90
2022-08-26T21:34:25.295Z,999.90
2022-08-26T21:36:27.181Z,999.90
2022-08-26T21:38:30.973Z,999.90
2022-08-26T21:40:32.757Z,999.90
2022-08-26T21:42:35.016Z,999.90
2022-08-26T21:44:36.724Z,999.90
2022-08-26T21:46:38.980Z,999.90
2022-08-26T21:48:45.677Z,999.90
2022-08-26T21:50:49.359Z,999.90
2022-08-26T21:52:51.047Z,999.90
2022-08-26T21:54:57.710Z,999.90
2022-08-26T21:56:59.524Z,999.90
2022-08-26T21:59:01.280Z,999.90
2022-08-26T22:01:03.109Z,999.90
2022-08-26T22:03:04.955Z,999.90
2022-08-26T22:05:06.886Z,999.90
2022-08-26T22:07:08.650Z,999.90
2022-08-26T22:09:11.773Z,999.90
2022-08-26T22:11:14.292Z,999.90
2022-08-26T22:13:16.256Z,999.90
2022-08-26T22:15:22.974Z,999.90
2022-08-26T22:17:24.809Z,999.90
2022-08-26T22:19:26.807Z,999.90
2022-08-26T22:21:28.588Z,999.90
2022-08-26T22:23:30.554Z,999.90
2022-08-26T22:25:32.489Z,999.90
2022-08-26T22:27:34.361Z,999.90
2022-08-26T22:29:42.294Z,999.90
2022-08-26T22:31:44.158Z,999.90
2022-08-26T22:33:46.054Z,999.90
2022-08-26T22:35:49.289Z,999.90
2022-08-26T22:37:51.071Z,999.90
2022-08-26T22:39:52.746Z,999.90
2022-08-26T22:41:54.648Z,999.90
2022-08-26T22:43:56.444Z,999.90
2022-08-26T22:45:58.150Z,999.90
2022-08-26T22:48:05.117Z,999.90
2022-08-26T22:50:07.630Z,999.90
2022-08-26T22:52:09.405Z,999.90
2022-08-26T22:54:11.213Z,999.90
2022-08-26T22:56:14.406Z,999.90
2022-08-26T22:58:17.537Z,999.90
2022-08-26T23:00:19.543Z,999.90
2022-08-26T23:02:33.569Z,999.90
2022-08-26T23:04:35.259Z,999.90
2022-08-26T23:06:39.042Z,999.90
2022-08-26T23:08:41.974Z,999.90
2022-08-26T23:10:45.942Z,999.90
2022-08-26T23:12:47.669Z,999.90
2022-08-26T23:14:50.451Z,999.90
2022-08-26T23:16:52.767Z,999.90
2022-08-26T23:18:54.499Z,999.90
2022-08-26T23:20:56.366Z,999.90
2022-08-26T23:22:58.697Z,999.90
2022-08-26T23:25:00.412Z,999.90
2022-08-26T23:27:02.398Z,999.90
2022-08-26T23:29:05.730Z,999.90
2022-08-26T23:31:08.100Z,999.90
2022-08-26T23:33:09.794Z,999.90
2022-08-26T23:35:12.426Z,999.90
2022-08-26T23:37:16.499Z,999.90
2022-08-26T23:39:18.459Z,999.90
2022-08-26T23:41:21.933Z,999.90
2022-08-26T23:43:23.552Z,999.90
2022-08-26T23:45:26.854Z,999.90
2022-08-26T23:47:28.961Z,999.90
2022-08-26T23:49:31.118Z,999.90
2022-08-26T23:51:51.437Z,999.90
2022-08-26T23:53:53.148Z,999.90
2022-08-26T23:55:54.869Z,999.90
2022-08-26T23:57:56.626Z,999.90
2022-08-26T23:59:58.360Z,999.90
